createdAt,value
2018-06-23T00:00:04.860Z,21.26
2018-06-23T00:02:32.820Z,21.24
2018-06-23T00:05:00.806Z,21.21
2018-06-23T00:07:28.801Z,21.15
2018-06-23T00:09:56.831Z,21.14
2018-06-23T00:12:24.823Z,21.15
2018-06-23T00:14:52.880Z,21.14
2018-06-23T00:17:21.908Z,21.10
2018-06-23T00:19:49.932Z,21.05
2018-06-23T00:22:17.887Z,21.04
2018-06-23T00:24:45.804Z,21.00
2018-06-23T00:27:13.743Z,20.95
2018-06-23T00:29:41.711Z,20.92
2018-06-23T00:32:09.685Z,20.88
2018-06-23T00:34:37.698Z,20.87
2018-06-23T00:37:06.233Z,20.79
2018-06-23T00:39:34.180Z,20.77
2018-06-23T00:42:02.253Z,20.80
2018-06-23T00:44:30.309Z,20.79
2018-06-23T00:46:58.928Z,20.69
2018-06-23T00:49:26.897Z,20.73
2018-06-23T00:51:54.905Z,20.72
2018-06-23T00:54:23.582Z,20.70
2018-06-23T00:56:51.621Z,20.73
2018-06-23T00:59:30.734Z,20.68
2018-06-23T01:01:58.803Z,20.75
2018-06-23T01:04:26.846Z,20.78
2018-06-23T01:06:54.895Z,20.66
2018-06-23T01:09:22.834Z,20.63
2018-06-23T01:11:50.801Z,20.58
2018-06-23T01:14:19.210Z,20.58
2018-06-23T01:16:47.167Z,20.57
2018-06-23T01:19:15.665Z,20.54
2018-06-23T01:21:43.700Z,20.54
2018-06-23T01:24:11.671Z,20.56
2018-06-23T01:26:39.634Z,20.46
2018-06-23T01:29:07.524Z,20.45
2018-06-23T01:31:35.799Z,20.42
2018-06-23T01:34:04.933Z,20.35
2018-06-23T01:36:32.864Z,20.27
2018-06-23T01:39:00.770Z,20.24
2018-06-23T01:41:28.675Z,20.20
2018-06-23T01:43:56.620Z,20.12
2018-06-23T01:46:24.605Z,20.10
2018-06-23T01:48:52.508Z,20.05
2018-06-23T01:51:20.491Z,20.06
2018-06-23T01:53:49.064Z,20.03
2018-06-23T01:56:17.062Z,19.95
2018-06-23T01:58:45.088Z,19.92
2018-06-23T02:01:13.132Z,19.84
2018-06-23T02:03:41.688Z,19.83
2018-06-23T02:06:09.646Z,19.85
2018-06-23T02:08:38.160Z,19.80
2018-06-23T02:11:06.277Z,19.77
2018-06-23T02:13:35.080Z,19.79
2018-06-23T02:16:08.558Z,19.73
2018-06-23T02:18:42.327Z,19.78
2018-06-23T02:21:15.793Z,19.73
2018-06-23T02:23:49.199Z,19.72
2018-06-23T02:26:23.641Z,19.67
2018-06-23T02:28:57.114Z,19.63
2018-06-23T02:31:30.502Z,19.60
2018-06-23T02:34:04.463Z,19.54
2018-06-23T02:36:32.417Z,19.54
2018-06-23T02:39:00.387Z,19.53
2018-06-23T02:41:30.793Z,19.51
2018-06-23T02:44:01.396Z,19.44
2018-06-23T02:46:29.411Z,19.45
2018-06-23T02:48:57.456Z,19.43
2018-06-23T02:51:26.010Z,19.40
2018-06-23T02:53:53.926Z,19.26
2018-06-23T02:56:22.639Z,19.31
2018-06-23T02:58:51.085Z,19.25
2018-06-23T03:01:19.210Z,19.16
2018-06-23T03:03:47.307Z,19.08
2018-06-23T03:06:15.288Z,18.95
2018-06-23T03:08:43.404Z,18.84
2018-06-23T03:11:11.673Z,18.83
2018-06-23T03:13:39.737Z,18.77
2018-06-23T03:16:07.885Z,18.73
2018-06-23T03:18:36.145Z,18.61
2018-06-23T03:21:04.207Z,18.61
2018-06-23T03:23:32.808Z,18.58
2018-06-23T03:26:01.114Z,18.50
2018-06-23T03:28:29.629Z,18.39
2018-06-23T03:30:57.591Z,18.34
2018-06-23T03:33:25.698Z,18.21
2018-06-23T03:35:53.711Z,18.09
2018-06-23T03:38:21.671Z,17.98
2018-06-23T03:40:49.617Z,17.88
2018-06-23T03:43:19.441Z,17.85
2018-06-23T03:45:48.418Z,17.81
2018-06-23T03:48:16.527Z,17.85
2018-06-23T03:50:44.599Z,17.80
2018-06-23T03:53:12.782Z,17.72
2018-06-23T03:55:41.156Z,17.64
2018-06-23T03:58:09.122Z,17.57
2018-06-23T04:00:42.120Z,17.63
2018-06-23T04:03:10.160Z,17.70
2018-06-23T04:05:44.238Z,17.78
2018-06-23T04:08:12.299Z,17.82
2018-06-23T04:10:40.393Z,17.89
2018-06-23T04:13:08.409Z,17.87
2018-06-23T04:15:36.835Z,17.98
2018-06-23T04:18:04.971Z,18.02
2018-06-23T04:20:32.934Z,17.92
2018-06-23T04:23:01.001Z,17.93
2018-06-23T04:25:28.993Z,17.93
2018-06-23T04:27:57.150Z,17.98
2018-06-23T04:30:25.406Z,17.94
2018-06-23T04:32:53.342Z,17.96
2018-06-23T04:35:23.687Z,17.98
2018-06-23T04:37:51.721Z,17.96
2018-06-23T04:40:20.249Z,17.90
2018-06-23T04:42:48.455Z,17.84
2018-06-23T04:45:17.354Z,17.77
2018-06-23T04:47:45.345Z,17.72
2018-06-23T04:50:13.433Z,17.73
2018-06-23T04:52:41.532Z,17.71
2018-06-23T04:55:09.632Z,17.65
2018-06-23T04:57:38.692Z,17.57
2018-06-23T05:00:06.848Z,17.57
2018-06-23T05:02:35.007Z,17.54
2018-06-23T05:05:03.038Z,17.57
2018-06-23T05:07:31.144Z,17.63
2018-06-23T05:09:59.201Z,17.67
2018-06-23T05:12:27.156Z,17.72
2018-06-23T05:14:55.127Z,17.63
2018-06-23T05:17:23.176Z,17.63
2018-06-23T05:19:51.694Z,17.63
2018-06-23T05:22:19.749Z,17.66
2018-06-23T05:24:47.782Z,17.72
2018-06-23T05:27:15.697Z,17.67
2018-06-23T05:29:44.443Z,17.68
2018-06-23T05:32:12.489Z,17.65
2018-06-23T05:34:40.548Z,17.64
2018-06-23T05:37:08.931Z,17.63
2018-06-23T05:39:36.837Z,17.64
2018-06-23T05:42:05.492Z,17.63
2018-06-23T05:44:33.546Z,17.78
2018-06-23T05:47:01.517Z,17.96
2018-06-23T05:49:29.636Z,18.02
2018-06-23T05:51:57.671Z,17.89
2018-06-23T05:54:25.734Z,17.80
2018-06-23T05:56:56.877Z,17.78
2018-06-23T05:59:24.968Z,17.83
2018-06-23T06:01:53.159Z,17.87
2018-06-23T06:04:21.151Z,17.86
2018-06-23T06:06:49.156Z,17.91
2018-06-23T06:09:17.141Z,17.84
2018-06-23T06:11:45.534Z,17.78
2018-06-23T06:14:13.501Z,17.79
2018-06-23T06:17:52.920Z,17.67
2018-06-23T06:20:21.183Z,17.60
2018-06-23T06:22:49.241Z,17.55
2018-06-23T06:25:19.387Z,17.65
2018-06-23T06:27:48.976Z,17.72
2018-06-23T06:30:17.033Z,17.77
2018-06-23T06:32:46.574Z,17.79
2018-06-23T06:35:14.941Z,17.74
2018-06-23T06:37:43.670Z,17.83
2018-06-23T06:40:11.905Z,17.74
2018-06-23T06:42:39.948Z,17.81
2018-06-23T06:45:07.979Z,17.80
2018-06-23T06:47:37.012Z,17.83
2018-06-23T06:50:05.275Z,17.83
2018-06-23T06:52:33.706Z,17.86
2018-06-23T06:55:01.763Z,17.89
2018-06-23T06:57:29.742Z,17.85
2018-06-23T06:59:58.045Z,17.92
2018-06-23T07:02:26.049Z,17.87
2018-06-23T07:04:54.157Z,17.88
2018-06-23T07:07:22.156Z,17.90
2018-06-23T07:09:50.069Z,17.98
2018-06-23T07:12:17.968Z,18.19
2018-06-23T07:14:45.932Z,18.27
2018-06-23T07:17:14.010Z,18.27
2018-06-23T07:19:42.130Z,18.36
2018-06-23T07:22:10.027Z,18.26
2018-06-23T07:24:38.755Z,18.35
2018-06-23T07:27:06.819Z,18.21
2018-06-23T07:29:34.832Z,18.00
2018-06-23T07:32:03.954Z,17.92
2018-06-23T07:34:32.022Z,17.91
2018-06-23T07:36:59.887Z,17.89
2018-06-23T07:39:28.149Z,17.77
2018-06-23T07:41:56.096Z,17.88
2018-06-23T07:44:24.015Z,18.03
2018-06-23T07:46:51.984Z,18.13
2018-06-23T07:49:20.138Z,18.11
2018-06-23T07:51:48.092Z,18.06
2018-06-23T07:54:16.296Z,18.05
2018-06-23T07:56:44.359Z,17.96
2018-06-23T07:59:12.428Z,17.87
2018-06-23T08:01:40.449Z,17.83
2018-06-23T08:04:08.501Z,17.80
2018-06-23T08:06:36.505Z,17.75
2018-06-23T08:09:07.148Z,17.71
2018-06-23T08:11:35.199Z,17.75
2018-06-23T08:14:03.441Z,17.54
2018-06-23T08:16:31.467Z,17.48
2018-06-23T08:18:59.413Z,17.43
2018-06-23T08:21:27.529Z,17.32
2018-06-23T08:23:55.478Z,17.17
2018-06-23T08:26:24.438Z,17.11
2018-06-23T08:28:52.985Z,16.97
2018-06-23T08:31:20.944Z,16.92
2018-06-23T08:33:48.918Z,16.87
2018-06-23T08:36:16.920Z,16.76
2018-06-23T08:38:44.950Z,16.74
2018-06-23T08:41:12.923Z,16.60
2018-06-23T08:43:40.953Z,16.52
2018-06-23T08:46:08.862Z,16.41
2018-06-23T08:48:36.794Z,16.32
2018-06-23T08:51:04.722Z,16.26
2018-06-23T08:53:32.716Z,16.38
2018-06-23T08:56:00.620Z,16.42
2018-06-23T08:58:28.618Z,16.52
2018-06-23T09:00:57.084Z,16.59
2018-06-23T09:03:25.167Z,16.67
2018-06-23T09:05:53.157Z,16.78
2018-06-23T09:08:21.161Z,16.88
2018-06-23T09:10:49.047Z,16.92
2018-06-23T09:13:17.087Z,16.90
2018-06-23T09:15:45.058Z,16.98
2018-06-23T09:18:13.074Z,17.03
2018-06-23T09:20:41.088Z,16.95
2018-06-23T09:23:09.306Z,17.10
2018-06-23T09:25:37.468Z,17.16
2018-06-23T09:28:05.561Z,17.12
2018-06-23T09:30:33.583Z,17.04
2018-06-23T09:33:01.581Z,17.02
2018-06-23T09:35:29.794Z,17.01
2018-06-23T09:37:57.812Z,17.04
2018-06-23T09:40:26.066Z,17.04
2018-06-23T09:42:54.188Z,17.11
2018-06-23T09:45:22.092Z,17.22
2018-06-23T09:47:50.429Z,17.16
2018-06-23T09:50:18.644Z,17.15
2018-06-23T09:52:46.832Z,17.26
2018-06-23T09:55:15.040Z,17.49
2018-06-23T09:57:43.274Z,17.54
2018-06-23T10:00:15.693Z,17.52
2018-06-23T10:02:46.163Z,17.51
2018-06-23T10:05:14.169Z,17.47
2018-06-23T10:07:42.176Z,17.55
2018-06-23T10:10:10.167Z,17.64
2018-06-23T10:12:38.432Z,17.67
2018-06-23T10:15:06.715Z,17.69
2018-06-23T10:17:34.610Z,17.73
2018-06-23T10:20:02.689Z,17.77
2018-06-23T10:22:30.646Z,17.82
2018-06-23T10:24:58.640Z,17.80
2018-06-23T10:27:26.616Z,17.77
2018-06-23T10:29:54.533Z,17.66
2018-06-23T10:32:22.995Z,17.59
2018-06-23T10:34:51.381Z,17.71
2018-06-23T10:37:19.410Z,17.67
2018-06-23T10:39:47.523Z,17.68
2018-06-23T10:42:15.505Z,17.77
2018-06-23T10:44:43.547Z,17.88
2018-06-23T10:47:11.510Z,17.86
2018-06-23T10:49:39.477Z,17.86
2018-06-23T10:52:07.398Z,17.71
2018-06-23T10:54:35.958Z,17.76
2018-06-23T10:57:04.147Z,17.92
2018-06-23T10:59:32.143Z,17.83
2018-06-23T11:02:00.157Z,17.77
2018-06-23T11:04:28.354Z,17.82
2018-06-23T11:06:56.424Z,17.91
2018-06-23T11:09:25.289Z,18.00
2018-06-23T11:11:53.261Z,17.97
2018-06-23T11:14:21.167Z,18.05
2018-06-23T11:16:49.306Z,18.22
2018-06-23T11:19:17.221Z,18.38
2018-06-23T11:21:45.702Z,18.30
2018-06-23T11:24:13.767Z,18.63
2018-06-23T11:26:41.684Z,18.67
2018-06-23T11:29:09.648Z,18.51
2018-06-23T11:31:37.973Z,18.50
2018-06-23T11:34:05.951Z,18.52
2018-06-23T11:36:33.934Z,18.37
2018-06-23T11:39:02.577Z,18.23
2018-06-23T11:41:30.718Z,18.21
2018-06-23T11:43:58.756Z,18.17
2018-06-23T11:46:27.080Z,17.96
2018-06-23T11:48:55.060Z,18.00
2018-06-23T11:51:22.969Z,17.87
2018-06-23T11:53:50.985Z,17.80
2018-06-23T11:56:19.042Z,17.68
2018-06-23T11:58:47.351Z,17.57
2018-06-23T12:01:15.765Z,17.57
2018-06-23T12:03:43.680Z,17.56
2018-06-23T12:06:12.388Z,17.47
2018-06-23T12:08:40.271Z,17.46
2018-06-23T12:11:08.874Z,17.50
2018-06-23T12:13:36.906Z,17.57
2018-06-23T12:16:04.829Z,17.57
2018-06-23T12:18:32.834Z,17.66
2018-06-23T12:21:00.769Z,17.67
2018-06-23T12:23:28.860Z,17.65
2018-06-23T12:25:56.790Z,17.84
2018-06-23T12:28:24.838Z,17.80
2018-06-23T12:30:52.799Z,17.83
2018-06-23T12:33:20.728Z,17.89
2018-06-23T12:35:49.168Z,17.90
2018-06-23T12:38:17.371Z,17.98
2018-06-23T12:40:45.336Z,18.05
2018-06-23T12:43:13.307Z,18.20
2018-06-23T12:45:42.162Z,18.35
2018-06-23T12:48:10.177Z,18.42
2018-06-23T12:50:38.145Z,18.47
2018-06-23T12:53:06.986Z,18.42
2018-06-23T12:55:35.504Z,18.55
2018-06-23T12:58:03.500Z,18.67
2018-06-23T13:00:31.597Z,18.75
2018-06-23T13:02:59.624Z,18.79
2018-06-23T13:05:27.670Z,18.93
2018-06-23T13:07:56.087Z,18.95
2018-06-23T13:10:24.127Z,19.08
2018-06-23T13:12:52.130Z,19.14
2018-06-23T13:15:20.277Z,19.20
2018-06-23T13:17:48.374Z,19.13
2018-06-23T13:20:17.645Z,19.21
2018-06-23T13:22:45.920Z,19.34
2018-06-23T13:25:13.896Z,19.65
2018-06-23T13:27:41.910Z,19.98
2018-06-23T13:30:10.412Z,20.14
2018-06-23T13:32:38.538Z,20.59
2018-06-23T13:35:06.489Z,20.58
2018-06-23T13:37:34.964Z,20.71
2018-06-23T13:40:02.879Z,20.19
2018-06-23T13:42:30.918Z,20.09
2018-06-23T13:44:59.032Z,19.90
2018-06-23T13:47:27.178Z,20.09
2018-06-23T13:49:55.205Z,20.38
2018-06-23T13:52:23.187Z,20.11
2018-06-23T13:54:51.367Z,20.09
2018-06-23T13:57:19.765Z,20.10
2018-06-23T13:59:48.394Z,20.37
2018-06-23T14:02:16.440Z,20.67
2018-06-23T14:04:44.993Z,21.02
2018-06-23T14:07:13.185Z,21.02
2018-06-23T14:09:41.416Z,20.73
2018-06-23T14:12:09.412Z,20.28
2018-06-23T14:14:37.466Z,20.02
2018-06-23T14:17:06.310Z,20.05
2018-06-23T14:19:34.385Z,20.15
2018-06-23T14:22:02.506Z,20.64
2018-06-23T14:24:30.543Z,20.53
2018-06-23T14:26:58.533Z,20.57
2018-06-23T14:29:26.626Z,20.21
2018-06-23T14:31:54.695Z,20.30
2018-06-23T14:34:22.684Z,20.55
2018-06-23T14:36:50.727Z,20.96
2018-06-23T14:39:18.696Z,21.19
2018-06-23T14:41:46.681Z,21.13
2018-06-23T14:44:14.664Z,21.10
2018-06-23T14:46:42.759Z,20.96
2018-06-23T14:49:10.730Z,21.18
2018-06-23T14:51:38.910Z,21.11
2018-06-23T14:54:06.954Z,21.52
2018-06-23T14:56:36.038Z,21.69
2018-06-23T14:59:05.003Z,21.32
2018-06-23T15:01:32.992Z,21.52
2018-06-23T15:04:00.951Z,21.77
2018-06-23T15:06:29.052Z,21.88
2018-06-23T15:09:07.958Z,21.02
2018-06-23T15:11:47.012Z,20.70
2018-06-23T15:14:15.212Z,20.30
2018-06-23T15:16:43.344Z,19.93
2018-06-23T15:19:11.410Z,19.81
2018-06-23T15:21:39.486Z,19.67
2018-06-23T15:24:08.048Z,19.63
2018-06-23T15:26:36.087Z,19.67
2018-06-23T15:29:04.220Z,19.82
2018-06-23T15:31:32.277Z,19.72
2018-06-23T15:34:00.911Z,19.74
2018-06-23T15:36:29.109Z,19.63
2018-06-23T15:38:57.106Z,19.65
2018-06-23T15:41:25.092Z,19.55
2018-06-23T15:43:53.056Z,19.71
2018-06-23T15:46:21.127Z,19.62
2018-06-23T15:48:49.397Z,19.78
2018-06-23T15:51:17.473Z,19.87
2018-06-23T15:53:45.574Z,19.81
2018-06-23T15:56:13.727Z,20.10
2018-06-23T15:58:42.669Z,20.20
2018-06-23T16:01:10.607Z,20.39
2018-06-23T16:03:38.633Z,20.55
2018-06-23T16:06:07.018Z,21.17
2018-06-23T16:08:34.963Z,21.39
2018-06-23T16:11:03.558Z,22.18
2018-06-23T16:13:31.560Z,23.14
2018-06-23T16:15:59.530Z,23.78
2018-06-23T16:18:27.570Z,23.29
2018-06-23T16:20:55.540Z,23.59
2018-06-23T16:23:23.475Z,23.48
2018-06-23T16:25:51.796Z,23.20
2018-06-23T16:28:19.810Z,22.93
2018-06-23T16:30:47.817Z,22.40
2018-06-23T16:33:15.951Z,22.10
2018-06-23T16:35:44.381Z,22.17
2018-06-23T16:38:12.347Z,22.42
2018-06-23T16:40:41.577Z,22.34
2018-06-23T16:43:09.540Z,22.42
2018-06-23T16:45:37.794Z,22.60
2018-06-23T16:48:06.163Z,22.45
2018-06-23T16:50:34.574Z,22.16
2018-06-23T16:53:02.728Z,22.00
2018-06-23T16:55:30.915Z,21.42
2018-06-23T16:57:58.908Z,21.04
2018-06-23T17:00:27.717Z,20.79
2018-06-23T17:02:55.643Z,20.50
2018-06-23T17:05:24.792Z,20.29
2018-06-23T17:07:53.018Z,20.07
2018-06-23T17:10:21.039Z,19.95
2018-06-23T17:12:49.585Z,19.92
2018-06-23T17:15:17.574Z,19.85
2018-06-23T17:17:45.588Z,19.81
2018-06-23T17:20:13.887Z,19.79
2018-06-23T17:22:41.928Z,19.72
2018-06-23T17:25:11.170Z,19.71
2018-06-23T17:27:39.239Z,19.64
2018-06-23T17:30:07.323Z,19.56
2018-06-23T17:32:35.747Z,19.58
2018-06-23T17:35:03.773Z,19.56
2018-06-23T17:37:34.504Z,19.47
2018-06-23T17:40:02.544Z,19.45
2018-06-23T17:42:30.463Z,19.37
2018-06-23T17:44:58.507Z,19.33
2018-06-23T17:47:26.504Z,19.32
2018-06-23T17:49:54.520Z,19.28
2018-06-23T17:52:22.444Z,19.26
2018-06-23T17:54:50.351Z,19.12
2018-06-23T17:57:19.306Z,19.05
2018-06-23T17:59:47.473Z,19.03
2018-06-23T18:02:15.482Z,18.95
2018-06-23T18:04:43.466Z,18.92
2018-06-23T18:07:11.849Z,18.90
2018-06-23T18:09:39.802Z,18.89
2018-06-23T18:12:08.594Z,18.83
2018-06-23T18:14:37.628Z,18.76
2018-06-23T18:17:05.588Z,18.75
2018-06-23T18:19:33.556Z,18.70
2018-06-23T18:22:01.553Z,18.69
2018-06-23T18:24:29.562Z,18.62
2018-06-23T18:26:57.511Z,18.57
2018-06-23T18:29:25.987Z,18.51
2018-06-23T18:31:53.934Z,18.46
2018-06-23T18:34:22.871Z,18.44
2018-06-23T18:36:50.932Z,18.41
2018-06-23T18:39:19.002Z,18.37
2018-06-23T18:41:47.186Z,18.32
2018-06-23T18:44:18.111Z,18.20
2018-06-23T18:46:46.186Z,18.17
2018-06-23T18:49:15.659Z,18.08
2018-06-23T18:51:44.067Z,18.04
2018-06-23T18:54:12.040Z,18.06
2018-06-23T18:56:41.665Z,18.02
2018-06-23T18:59:09.615Z,17.97
2018-06-23T19:01:37.947Z,18.02
2018-06-23T19:04:06.023Z,17.87
2018-06-23T19:06:34.160Z,17.85
2018-06-23T19:09:02.845Z,17.88
2018-06-23T19:11:30.869Z,17.82
2018-06-23T19:13:58.816Z,17.84
2018-06-23T19:16:26.845Z,17.65
2018-06-23T19:18:55.630Z,17.68
2018-06-23T19:21:23.713Z,17.74
2018-06-23T19:23:52.127Z,17.68
2018-06-23T19:26:20.285Z,17.65
2018-06-23T19:28:48.735Z,17.63
2018-06-23T19:31:16.712Z,17.60
2018-06-23T19:33:44.780Z,17.64
2018-06-23T19:36:14.424Z,17.62
2018-06-23T19:38:42.440Z,17.51
2018-06-23T19:41:27.619Z,17.46
2018-06-23T19:43:56.113Z,17.41
2018-06-23T19:46:24.071Z,17.41
2018-06-23T19:48:52.224Z,17.33
2018-06-23T19:51:20.383Z,17.30
2018-06-23T19:53:48.510Z,17.31
2018-06-23T19:56:16.458Z,17.35
2018-06-23T19:58:44.350Z,17.31
2018-06-23T20:01:12.385Z,17.36
2018-06-23T20:03:40.268Z,17.33
2018-06-23T20:06:08.553Z,17.28
2018-06-23T20:08:36.592Z,17.18
2018-06-23T20:11:04.511Z,17.17
2018-06-23T20:13:32.449Z,17.08
2018-06-23T20:16:00.387Z,17.08
2018-06-23T20:18:34.785Z,17.13
2018-06-23T20:21:02.793Z,17.13
2018-06-23T20:23:30.864Z,17.16
2018-06-23T20:25:58.991Z,17.08
2018-06-23T20:28:26.948Z,17.07
2018-06-23T20:30:55.212Z,17.12
2018-06-23T20:33:23.237Z,17.09
2018-06-23T20:35:51.226Z,17.11
2018-06-23T20:38:19.292Z,17.10
2018-06-23T20:40:47.250Z,17.09
2018-06-23T20:43:16.270Z,17.11
2018-06-23T20:45:44.666Z,17.05
2018-06-23T20:48:12.856Z,17.13
2018-06-23T20:50:40.845Z,17.10
2018-06-23T20:53:08.895Z,17.20
2018-06-23T20:55:36.879Z,17.13
2018-06-23T20:58:05.103Z,17.18
2018-06-23T21:00:34.234Z,17.10
2018-06-23T21:03:02.342Z,17.05
2018-06-23T21:05:30.556Z,17.12
2018-06-23T21:07:58.532Z,17.16
2018-06-23T21:10:36.889Z,17.21
2018-06-23T21:13:04.838Z,17.17
2018-06-23T21:15:32.720Z,17.05
2018-06-23T21:18:01.010Z,17.12
2018-06-23T21:20:29.353Z,17.12
2018-06-23T21:22:57.363Z,17.13
2018-06-23T21:25:25.356Z,17.15
2018-06-23T21:27:53.311Z,17.07
2018-06-23T21:30:21.368Z,17.08
2018-06-23T21:32:50.464Z,17.02
2018-06-23T21:35:18.715Z,16.94
2018-06-23T21:37:46.784Z,16.87
2018-06-23T21:40:14.897Z,16.88
2018-06-23T21:42:42.747Z,16.83
2018-06-23T21:45:10.676Z,16.80
2018-06-23T21:47:39.177Z,16.76
2018-06-23T21:50:07.065Z,16.81
2018-06-23T21:52:35.139Z,16.86
2018-06-23T21:55:04.432Z,16.85
2018-06-23T21:57:33.013Z,16.89
2018-06-23T22:00:01.454Z,16.96
2018-06-23T22:02:29.510Z,17.00
2018-06-23T22:04:58.354Z,16.94
2018-06-23T22:07:26.326Z,16.82
2018-06-23T22:09:54.296Z,16.89
2018-06-23T22:12:22.219Z,16.85
2018-06-23T22:14:51.197Z,16.81
2018-06-23T22:17:19.267Z,16.80
2018-06-23T22:19:47.226Z,16.77
2018-06-23T22:22:15.156Z,16.74
2018-06-23T22:24:43.111Z,16.72
2018-06-23T22:27:11.530Z,16.71
2018-06-23T22:29:39.481Z,16.74
2018-06-23T22:32:07.416Z,16.74
2018-06-23T22:34:36.169Z,16.75
2018-06-23T22:37:04.179Z,16.75
2018-06-23T22:39:32.306Z,16.67
2018-06-23T22:42:00.207Z,16.67
2018-06-23T22:44:28.190Z,16.69
2018-06-23T22:46:56.218Z,16.66
2018-06-23T22:49:24.247Z,16.70
2018-06-23T22:51:52.179Z,16.66
2018-06-23T22:54:20.128Z,16.62
2018-06-23T22:56:48.091Z,16.55
2018-06-23T22:59:16.051Z,16.56
2018-06-23T23:01:43.974Z,16.65
2018-06-23T23:04:11.946Z,16.56
2018-06-23T23:06:39.943Z,16.47
2018-06-23T23:09:09.515Z,16.48
2018-06-23T23:11:37.481Z,16.52
2018-06-23T23:14:06.007Z,16.43
2018-06-23T23:16:34.122Z,16.42
2018-06-23T23:19:02.135Z,16.45
2018-06-23T23:21:30.098Z,16.47
2018-06-23T23:23:58.014Z,16.42
2018-06-23T23:26:26.058Z,16.40
2018-06-23T23:28:54.047Z,16.39
2018-06-23T23:31:22.054Z,16.37
2018-06-23T23:33:50.121Z,16.42
2018-06-23T23:36:18.046Z,16.44
2018-06-23T23:38:46.382Z,16.44
2018-06-23T23:41:14.350Z,16.41
2018-06-23T23:43:42.302Z,16.45
2018-06-23T23:46:10.268Z,16.45
2018-06-23T23:48:38.249Z,16.40
2018-06-23T23:51:06.219Z,16.35
2018-06-23T23:53:34.221Z,16.35
2018-06-23T23:56:02.855Z,16.36
2018-06-23T23:58:30.814Z,16.20
